This is the latest recevied weather packets stored in our database for station/object KM4KMS. If no packets are shown the sender has not sent any weather packets the latest 10 day(s).
| Time | Temp. | Humidity | Pressure | Rain* | Wind** | Luminosity | Snow |
|---|---|---|---|---|---|---|---|
| 1778228868 | 5° C | 97% | 1014.2 hPa | 0 mm | - | 0 W/m² | - |
| 1778228566 | 4.44° C | 99% | 1014.6 hPa | 0 mm | - | 0 W/m² | - |
| 1778228263 | 3.89° C | 99% | 1014.2 hPa | 0 mm | - | 0 W/m² | - |
| 1778227960 | 3.89° C | 99% | 1014.3 hPa | 0 mm | - | 0 W/m² | - |
| 1778227657 | 4.44° C | 99% | 1014.4 hPa | 0 mm | - | 0 W/m² | - |
| 1778227355 | 4.44° C | 99% | 1014.1 hPa | 0 mm | - | 0 W/m² | - |
| 1778227051 | 4.44° C | 99% | 1014.3 hPa | 0 mm | - | 0 W/m² | - |
| 1778226748 | 4.44° C | 99% | 1014.3 hPa | 0 mm | - | 0 W/m² | - |
| 1778226446 | 4.44° C | 98% | 1014.6 hPa | 0 mm | - | 0 W/m² | - |
| 1778226144 | 4.44° C | 98% | 1014.6 hPa | 0 mm | - | 0 W/m² | - |
| 1778225840 | 4.44° C | 98% | 1014.3 hPa | 0 mm | - | 0 W/m² | - |
| 1778225538 | 5° C | 98% | 1014.1 hPa | 0 mm | - | 0 W/m² | - |
| 1778225234 | 4.44° C | 97% | 1014.2 hPa | 0 mm | - | 0 W/m² | - |
| 1778224931 | 4.44° C | 95% | 1014.2 hPa | 0 mm | - | 0 W/m² | - |
| 1778224628 | 5.56° C | 92% | 1014.6 hPa | 0 mm | - | 0 W/m² | - |
| 1778224327 | 6.11° C | 89% | 1014.3 hPa | 0 mm | - | 0 W/m² | - |
| 1778224023 | 6.11° C | 88% | 1014.6 hPa | 0 mm | - | 0 W/m² | - |
| 1778223723 | 6.67° C | 87% | 1014.3 hPa | 0 mm | - | 0 W/m² | - |
| 1778223419 | 6.67° C | 86% | 1014.4 hPa | 0 mm | - | 0 W/m² | - |
| 1778223117 | 6.11° C | 90% | 1014.6 hPa | 0 mm | - | 0 W/m² | - |
| 1778222814 | 5° C | 99% | 1014.6 hPa | 0 mm | - | 0 W/m² | - |
| 1778222512 | 4.44° C | 98% | 1014.8 hPa | 0 mm | - | 0 W/m² | - |
| 1778222209 | 5° C | 97% | 1014.8 hPa | 0 mm | - | 0 W/m² | - |
| 1778221907 | 5° C | 95% | 1014.7 hPa | 0 mm | - | 0 W/m² | - |
| 1778221605 | 5.56° C | 91% | 1014.7 hPa | 0 mm | - | 0 W/m² | - |
* Rain latest hour (hover to see other rain measurements)
** Current wind speed in m/s (hover to see current wind gust speed)